»·PEaware :: N149CD KEMT-KRNM

N149CD :: KEMT-KRNM

FLIGHT INFORMATION

Flight Status: Arrived
Operator: Privately registered:
United States
More flights under this callsign
Pilot: Nathan E. (30132)
Aircraft: CESSNA 172 SKYHAWK
(C172)
More flights by this aircraft type
Origin: KEMT El Monte
United States
Destination: KRNM Ramona
United States
More flights between these airports :: More routes between these airports
Route: PDZ V186 ROBNN V208 JLI
File this flight plan on PilotEdge
Remarks: TEC route ONTP13
Altitude:
(Current/Filed)
7,000ft
Speed:
(Current/Filed)
110kts
Departed: 08-Sep-20 10:32 AM
Arrived: 08-Sep-20 11:25 AM
Distance/Time
Traveled:
84nm/0:53
Distance/Time
To Go:
Arrived

Flight Plot

Page will automatically refresh every two minutes.


Map Options




Map Legend


Flown Route
Filed Route
Departure Airport
Arrival Airport
Navaid (VOR, NDB)
Fix

Horizontal Profiles

Position Reports

Time Latitude Longitude Heading Altitude Ground
Speed
08-Sep-20 10:15 34.086052 -118.033305 24 289ft 0kts
08-Sep-20 10:16 34.086052 -118.033305 24 289ft 0kts
08-Sep-20 10:18 34.086052 -118.033305 24 289ft 0kts
08-Sep-20 10:19 34.086052 -118.033305 24 289ft 0kts
08-Sep-20 10:20 34.086052 -118.033305 24 289ft 0kts
08-Sep-20 10:21 34.086052 -118.033305 24 289ft 0kts
08-Sep-20 10:22 34.086052 -118.033305 24 289ft 0kts
08-Sep-20 10:23 34.086052 -118.033305 24 289ft 0kts
08-Sep-20 10:24 34.086052 -118.033305 24 289ft 0kts
08-Sep-20 10:25 34.086052 -118.033305 24 289ft 0kts
08-Sep-20 10:26 34.086052 -118.033305 24 289ft 0kts
08-Sep-20 10:27 34.086296 -118.033645 294 289ft 12kts
08-Sep-20 10:28 34.090290 -118.031584 44 296ft 13kts
08-Sep-20 10:29 34.090579 -118.031404 291 297ft 0kts
08-Sep-20 10:30 34.090579 -118.031404 291 297ft 0kts
08-Sep-20 10:31 34.090879 -118.032039 236 294ft 2kts
08-Sep-20 10:32 34.077164 -118.040043 202 675ft 75kts
08-Sep-20 10:32 34.060064 -118.048014 201 1327ft 80kts
08-Sep-20 10:34 34.045400 -118.034321 79 2262ft 80kts
08-Sep-20 10:35 34.048338 -118.007370 77 3023ft 82kts
08-Sep-20 10:35 34.050868 -117.984287 77 3629ft 84kts
08-Sep-20 10:36 34.052197 -117.955348 87 4324ft 89kts
08-Sep-20 10:38 34.043488 -117.921319 108 5096ft 93kts
08-Sep-20 10:38 34.035680 -117.896751 108 5626ft 95kts
08-Sep-20 10:39 34.026088 -117.866597 107 6239ft 97kts
08-Sep-20 10:40 34.016326 -117.835937 107 6823ft 98kts
08-Sep-20 10:42 34.002950 -117.794019 107 6998ft 125kts
08-Sep-20 10:42 33.992407 -117.761194 107 6998ft 126kts
08-Sep-20 10:43 33.979752 -117.721620 107 6998ft 126kts
08-Sep-20 10:44 33.967156 -117.682208 107 6998ft 126kts
08-Sep-20 10:45 33.954471 -117.642554 107 7000ft 126kts
08-Sep-20 10:46 33.941745 -117.602816 107 7002ft 127kts
08-Sep-20 10:47 33.928933 -117.562906 107 7002ft 127kts
08-Sep-20 10:48 33.911621 -117.526625 141 7003ft 128kts
08-Sep-20 10:49 33.882974 -117.500762 144 7000ft 128kts
08-Sep-20 10:50 33.853929 -117.476027 144 7001ft 128kts
08-Sep-20 10:51 33.824827 -117.451559 144 7003ft 127kts
08-Sep-20 10:52 33.795802 -117.427241 143 7004ft 127kts
08-Sep-20 10:53 33.766985 -117.403130 142 7006ft 126kts
08-Sep-20 10:54 33.738365 -117.379196 141 7007ft 125kts
08-Sep-20 10:55 33.709942 -117.355452 141 7008ft 124kts
08-Sep-20 10:56 33.681509 -117.331707 142 7010ft 124kts
08-Sep-20 10:57 33.653030 -117.307955 143 7000ft 126kts
08-Sep-20 10:58 33.624353 -117.284067 143 6995ft 125kts
08-Sep-20 10:59 33.595571 -117.260109 144 6997ft 126kts
08-Sep-20 11:00 33.566678 -117.236089 144 6994ft 126kts
08-Sep-20 11:01 33.537637 -117.211961 143 6990ft 127kts
08-Sep-20 11:02 33.508596 -117.187852 143 6986ft 127kts
08-Sep-20 11:03 33.479309 -117.164148 156 6979ft 128kts
08-Sep-20 11:04 33.444670 -117.154638 169 6974ft 127kts
08-Sep-20 11:05 33.409895 -117.147201 168 6908ft 129kts
08-Sep-20 11:06 33.373535 -117.139510 166 6418ft 134kts
08-Sep-20 11:07 33.337518 -117.131893 164 5920ft 127kts
08-Sep-20 11:08 33.303421 -117.124662 163 5424ft 121kts
08-Sep-20 11:09 33.270963 -117.117632 176 4921ft 114kts
08-Sep-20 11:10 33.239508 -117.111123 175 4412ft 113kts
08-Sep-20 11:11 33.208306 -117.104550 177 3986ft 108kts
08-Sep-20 11:12 33.178853 -117.109071 193 3684ft 105kts
08-Sep-20 11:13 33.150106 -117.115363 193 3681ft 104kts
08-Sep-20 11:14 33.121489 -117.121715 193 3680ft 103kts
08-Sep-20 11:15 33.093146 -117.128004 194 3681ft 103kts
08-Sep-20 11:16 33.069697 -117.113043 114 3457ft 124kts
08-Sep-20 11:17 33.062203 -117.071650 103 3046ft 122kts
08-Sep-20 11:18 33.056360 -117.031940 101 3190ft 122kts
08-Sep-20 11:19 33.050297 -116.990881 99 2753ft 113kts
08-Sep-20 11:20 33.045552 -116.959110 105 2142ft 88kts
08-Sep-20 11:21 33.034625 -116.934928 109 2010ft 83kts
08-Sep-20 11:22 33.028629 -116.909137 96 2015ft 80kts
08-Sep-20 11:23 33.038043 -116.907767 280 1397ft 60kts
08-Sep-20 11:24 33.039155 -116.912421 9 1392ft 0kts
08-Sep-20 11:25 33.039791 -116.911989 275 1394ft 0kts

Navigation Log

Ident Type
Flight plan parsing failed, navigation log unavailable